METAR Data
IDs: Format: Raw Decoded Include TAF

Data at: 2054 UTC 17 Nov 2019

PGRO 172050Z 08014KT 7SM BKN013 BKN100 26/24 A2986